ADDS METAR Data INFO
IDs: Format: Raw Decoded Include TAF

Data at: 0318 UTC 20 Jul 2018

KMMU 200255Z AUTO 00000KT 10SM CLR 17/15 A3012 RMK AO2
KMMU 200235Z AUTO 00000KT 10SM CLR 17/15 A3012 RMK AO2
KMMU 200215Z AUTO 00000KT 10SM CLR 18/15 A3012 RMK AO2
KMMU 200145Z 19003KT 10SM SKC 20/16 A3011
KMMU 200045Z 15004KT 10SM SKC 23/15 A3008
KMMU 192345Z 20006KT 10SM SKC 26/14 A3007
KMMU 192245Z 21005KT 10SM SKC 28/13 A3007
KMMU 192145Z 23005KT 10SM SKC 28/11 A3007
KMMU 192045Z 13003KT 10SM SKC 28/11 A3007
KMMU 191945Z 10004KT 10SM SKC 28/11 A3008
KMMU 191845Z 08003KT 10SM SKC 27/12 A3009
KMMU 191745Z 01003KT 10SM SKC 26/12 A3010
KMMU 191645Z 08004KT 10SM SKC 26/12 A3011
KMMU 191545Z 00000KT 10SM SKC 25/11 A3012
KMMU 191445Z 06005KT 10SM SKC 24/13 A3012
KMMU 191346Z 05005KT 10SM SKC 23/14 A3012
KMMU 191345Z 05005KT 10SM SKC 23/14 A3012
KMMU 191245Z 08005KT 10SM SKC 20/14 A3010
KMMU 191155Z 09003KT 10SM SKC 18/14 A3010
KMMU 191145Z 09003KT 10SM SKC 18/14 A3010
KMMU 191045Z 00000KT 10SM SKC 14/14 A3008
KMMU 191035Z AUTO 00000KT 10SM SCT002 13/13 A3008 RMK AO2
KMMU 191015Z AUTO 00000KT 10SM CLR 13/13 A3008 RMK AO2
KMMU 190955Z AUTO 00000KT 7SM CLR 12/12 A3007 RMK AO2
KMMU 190935Z AUTO 00000KT 10SM CLR 12/12 A3007 RMK AO2
KMMU 190915Z AUTO 00000KT 10SM CLR 13/13 A3006 RMK AO2
KMMU 190855Z AUTO 00000KT 10SM CLR 12/12 A3005 RMK AO2
KMMU 190835Z AUTO 00000KT 10SM CLR 13/13 A3005 RMK AO2
KMMU 190815Z AUTO 00000KT 10SM CLR 13/13 A3005 RMK AO2
KMMU 190755Z AUTO 00000KT 10SM CLR 13/13 A3004 RMK AO2
KMMU 190735Z AUTO 00000KT 10SM CLR 13/13 A3004 RMK AO2
KMMU 190715Z AUTO 00000KT 10SM CLR 13/13 A3004 RMK AO2
KMMU 190655Z AUTO 00000KT 10SM CLR 14/13 A3003 RMK AO2
KMMU 190635Z AUTO 00000KT 10SM CLR 14/13 A3003 RMK AO2
KMMU 190615Z AUTO 00000KT 10SM CLR 15/13 A3003 RMK AO2
KMMU 190555Z AUTO 00000KT 10SM CLR 14/13 A3003 RMK AO2
KMMU 190535Z AUTO 00000KT 10SM CLR 15/13 A3003 RMK AO2
KMMU 190515Z AUTO 00000KT 10SM CLR 15/13 A3002 RMK AO2
KMMU 190455Z AUTO 00000KT 10SM CLR 16/13 A3002 RMK AO2
KMMU 190435Z AUTO 00000KT 10SM CLR 16/13 A3001 RMK AO2
KMMU 190415Z AUTO 00000KT 10SM CLR 17/13 A3001 RMK AO2
KMMU 190355Z AUTO 00000KT 10SM CLR 18/13 A3000 RMK AO2
KMMU 190335Z AUTO 00000KT 10SM CLR 20/12 A3000 RMK AO2
KMMU 190315Z AUTO 00000KT 10SM CLR 21/11 A3000 RMK AO2
KMMU 190255Z AUTO 01005KT 10SM CLR 22/11 A2999 RMK AO2
KMMU 190235Z AUTO 32003KT 10SM CLR 22/11 A2999 RMK AO2
KMMU 190215Z AUTO 32003KT 10SM CLR 22/12 A2999 RMK AO2
KMMU 190146Z 34004KT 10SM SKC 22/13 A2998
KMMU 190145Z 34004KT 10SM SKC 22/13 A2996
KMMU 190045Z 34004KT 10SM SKC 22/13 A2996
KMMU 182345Z 36006KT 10SM FEW065 25/13 A2994
KMMU 182245Z 35006G16KT 10SM FEW065 27/12 A2992
KMMU 182145Z 35009G17KT 10SM SCT090 27/13 A2991
KMMU 182055Z 32011G18KT 10SM SCT090 28/12 A2990
KMMU 181945Z 34007G12KT 10SM SCT075 28/15 A2991
KMMU 181855Z 34006KT 10SM SCT060 SCT070 28/15 A2991
KMMU 181745Z 31006KT 10SM SCT070 SCT090 27/16 A2991
KMMU 181647Z 31006KT 10SM SCT070 SCT090 27/16 A2991
KMMU 181645Z 05009G15KT 10SM SCT250 27/16 A2991
KMMU 181545Z 01007G14KT 10SM FEW250 27/17 A2992